createdAt,value
2022-10-01T00:01:31.896Z,19.60
2022-10-01T00:04:01.219Z,19.60
2022-10-01T00:06:30.142Z,19.60
2022-10-01T00:08:59.411Z,19.60
2022-10-01T00:11:28.417Z,19.60
2022-10-01T00:13:59.756Z,19.60
2022-10-01T00:16:29.957Z,19.50
2022-10-01T00:19:00.625Z,19.50
2022-10-01T00:21:31.949Z,19.50
2022-10-01T00:24:03.395Z,19.50
2022-10-01T00:26:33.941Z,19.50
2022-10-01T00:29:06.690Z,19.40
2022-10-01T00:31:35.683Z,19.40
2022-10-01T00:34:05.130Z,19.40
2022-10-01T00:36:34.945Z,19.30
2022-10-01T00:39:03.752Z,19.30
2022-10-01T00:41:35.584Z,19.20
2022-10-01T00:44:30.628Z,19.20
2022-10-01T00:47:03.129Z,19.20
2022-10-01T00:49:34.201Z,19.10
2022-10-01T00:52:26.438Z,19.10
2022-10-01T00:54:58.972Z,19.00
2022-10-01T00:57:29.072Z,19.00
2022-10-01T01:00:02.812Z,19.00
2022-10-01T01:02:31.731Z,18.90
2022-10-01T01:05:00.905Z,18.90
2022-10-01T01:07:31.131Z,18.90
2022-10-01T01:10:01.965Z,18.90
2022-10-01T01:12:47.671Z,18.90
2022-10-01T01:15:22.732Z,18.80
2022-10-01T01:17:57.612Z,18.80
2022-10-01T01:20:54.864Z,18.80
2022-10-01T01:23:44.085Z,18.80
2022-10-01T01:26:24.831Z,18.80
2022-10-01T01:28:59.266Z,18.80
2022-10-01T01:31:34.081Z,18.80
2022-10-01T01:34:07.135Z,18.80
2022-10-01T01:36:59.072Z,18.70
2022-10-01T01:39:32.950Z,18.70
2022-10-01T01:42:06.625Z,18.70
2022-10-01T01:44:41.199Z,18.70
2022-10-01T01:47:11.961Z,18.60
2022-10-01T01:49:42.304Z,18.60
2022-10-01T01:52:13.674Z,18.60
2022-10-01T01:54:44.631Z,18.60
2022-10-01T01:57:14.779Z,18.60
2022-10-01T01:59:45.143Z,18.50
2022-10-01T02:02:16.029Z,18.50
2022-10-01T02:04:48.527Z,18.50
2022-10-01T02:07:55.445Z,18.40
2022-10-01T02:10:37.135Z,18.40
2022-10-01T02:13:20.576Z,18.40
2022-10-01T02:16:01.522Z,18.40
2022-10-01T02:18:36.418Z,18.30
2022-10-01T02:21:14.067Z,18.30
2022-10-01T02:23:49.378Z,18.30
2022-10-01T02:26:22.173Z,18.40
2022-10-01T02:29:13.894Z,18.30
2022-10-01T02:31:44.677Z,18.30
2022-10-01T02:34:20.017Z,18.40
2022-10-01T02:36:50.297Z,18.40
2022-10-01T02:39:39.711Z,18.40
2022-10-01T02:42:10.236Z,18.30
2022-10-01T02:44:42.879Z,18.30
2022-10-01T02:47:19.768Z,18.30
2022-10-01T02:49:49.393Z,18.30
2022-10-01T02:52:27.667Z,18.30
2022-10-01T02:55:00.917Z,18.30
2022-10-01T02:57:29.199Z,18.20
2022-10-01T03:00:00.151Z,18.20
2022-10-01T03:02:33.302Z,18.20
2022-10-01T03:05:02.575Z,18.20
2022-10-01T03:07:32.522Z,18.20
2022-10-01T03:10:01.404Z,18.20
2022-10-01T03:12:30.185Z,18.10
2022-10-01T03:14:58.876Z,18.10
2022-10-01T03:17:27.837Z,18.10
2022-10-01T03:19:58.060Z,18.00
2022-10-01T03:22:27.014Z,18.00
2022-10-01T03:24:55.993Z,18.00
2022-10-01T03:27:24.938Z,17.90
2022-10-01T03:29:54.020Z,17.90
2022-10-01T03:32:22.760Z,17.90
2022-10-01T03:34:51.434Z,17.80
2022-10-01T03:37:21.664Z,17.80
2022-10-01T03:39:50.451Z,17.70
2022-10-01T03:42:19.185Z,17.70
2022-10-01T03:44:48.333Z,17.70
2022-10-01T03:47:17.171Z,17.70
2022-10-01T03:49:45.820Z,17.70
2022-10-01T03:52:14.625Z,17.70
2022-10-01T03:54:44.873Z,17.70
2022-10-01T03:57:13.787Z,17.60
2022-10-01T03:59:42.843Z,17.60
2022-10-01T04:02:11.584Z,17.60
2022-10-01T04:04:40.539Z,17.60
2022-10-01T04:07:09.306Z,17.60
2022-10-01T04:09:38.955Z,17.60
2022-10-01T04:12:27.480Z,17.70
2022-10-01T04:14:56.194Z,17.70
2022-10-01T04:17:45.966Z,17.70
2022-10-01T04:20:15.103Z,17.60
2022-10-01T04:22:45.437Z,17.70
2022-10-01T04:25:14.977Z,17.60
2022-10-01T04:27:56.937Z,17.60
2022-10-01T04:30:26.477Z,17.60
2022-10-01T04:32:55.121Z,17.60
2022-10-01T04:35:24.628Z,17.60
2022-10-01T04:37:59.460Z,17.60
2022-10-01T04:40:28.166Z,17.60
2022-10-01T04:42:59.267Z,17.60
2022-10-01T04:45:28.584Z,17.60
2022-10-01T04:47:58.701Z,17.70
2022-10-01T04:50:28.621Z,17.70
2022-10-01T04:52:57.391Z,17.80
2022-10-01T04:55:26.459Z,17.70
2022-10-01T04:57:55.967Z,17.90
2022-10-01T05:00:27.083Z,17.90
2022-10-01T05:02:56.260Z,17.90
2022-10-01T05:05:28.325Z,18.00
2022-10-01T05:07:57.108Z,18.00
2022-10-01T05:10:44.753Z,18.00
2022-10-01T05:13:14.080Z,18.10
2022-10-01T05:15:44.988Z,18.20
2022-10-01T05:18:13.816Z,18.20
2022-10-01T05:20:42.482Z,18.20
2022-10-01T05:23:11.287Z,18.30
2022-10-01T05:25:40.043Z,18.40
2022-10-01T05:28:08.953Z,18.40
2022-10-01T05:30:37.680Z,18.60
2022-10-01T05:33:07.924Z,18.60
2022-10-01T05:35:36.760Z,18.70
2022-10-01T05:38:05.529Z,18.80
2022-10-01T05:40:34.386Z,18.90
2022-10-01T05:43:04.595Z,19.00
2022-10-01T05:45:34.051Z,19.10
2022-10-01T05:48:04.577Z,19.20
2022-10-01T05:50:39.487Z,19.30
2022-10-01T05:53:09.141Z,19.40
2022-10-01T05:55:37.955Z,19.50
2022-10-01T05:58:09.970Z,19.60
2022-10-01T06:00:40.220Z,19.70
2022-10-01T06:03:09.510Z,19.80
2022-10-01T06:05:40.010Z,19.90
2022-10-01T06:08:09.939Z,20.00
2022-10-01T06:10:38.948Z,20.10
2022-10-01T06:13:08.126Z,20.30
2022-10-01T06:15:38.726Z,20.30
2022-10-01T06:18:09.392Z,20.40
2022-10-01T06:20:40.932Z,20.50
2022-10-01T06:23:12.697Z,20.60
2022-10-01T06:25:42.988Z,20.80
2022-10-01T06:28:15.876Z,20.80
2022-10-01T06:30:44.775Z,21.00
2022-10-01T06:33:14.689Z,21.10
2022-10-01T06:35:47.224Z,21.20
2022-10-01T06:38:17.293Z,21.30
2022-10-01T06:40:46.216Z,21.40
2022-10-01T06:43:14.941Z,21.60
2022-10-01T06:45:43.770Z,21.70
2022-10-01T06:48:15.413Z,21.80
2022-10-01T06:50:46.995Z,21.90
2022-10-01T06:53:18.794Z,22.00
2022-10-01T06:55:47.754Z,22.10
2022-10-01T06:58:18.045Z,22.20
2022-10-01T07:00:47.179Z,22.30
2022-10-01T07:03:18.505Z,22.40
2022-10-01T07:05:49.573Z,22.60
2022-10-01T07:08:19.060Z,22.60
2022-10-01T07:10:52.293Z,22.80
2022-10-01T07:13:21.883Z,22.90
2022-10-01T07:15:50.672Z,23.00
2022-10-01T07:18:19.368Z,23.00
2022-10-01T07:20:49.491Z,23.20
2022-10-01T07:23:18.621Z,23.30
2022-10-01T07:25:47.571Z,23.30
2022-10-01T07:28:18.571Z,23.50
2022-10-01T07:30:49.011Z,23.60
2022-10-01T07:33:20.315Z,23.70
2022-10-01T07:35:50.478Z,23.80
2022-10-01T07:38:38.041Z,23.80
2022-10-01T07:41:07.226Z,24.00
2022-10-01T07:43:36.807Z,24.10
2022-10-01T07:46:07.414Z,24.20
2022-10-01T07:48:36.102Z,24.30
2022-10-01T07:51:06.438Z,24.40
2022-10-01T07:53:35.184Z,24.50
2022-10-01T07:56:04.658Z,24.60
2022-10-01T07:58:33.421Z,24.80
2022-10-01T08:01:05.720Z,24.90
2022-10-01T08:03:34.722Z,25.00
2022-10-01T08:06:03.790Z,25.20
2022-10-01T08:08:34.210Z,25.40
2022-10-01T08:11:21.463Z,25.50
2022-10-01T08:13:50.210Z,25.70
2022-10-01T08:16:19.233Z,25.90
2022-10-01T08:18:48.036Z,26.00
2022-10-01T08:21:16.743Z,26.10
2022-10-01T08:23:46.850Z,26.30
2022-10-01T08:26:15.660Z,26.40
2022-10-01T08:28:44.331Z,26.60
2022-10-01T08:31:13.190Z,26.80
2022-10-01T08:33:42.088Z,27.20
2022-10-01T08:36:10.805Z,27.60
2022-10-01T08:38:40.908Z,28.10
2022-10-01T08:41:25.747Z,28.60
2022-10-01T08:43:55.623Z,29.00
2022-10-01T08:46:29.427Z,29.30
2022-10-01T08:49:04.464Z,29.60
2022-10-01T08:51:39.855Z,29.70
2022-10-01T08:54:21.979Z,29.80
2022-10-01T08:56:54.860Z,30.00
2022-10-01T08:59:36.650Z,30.00
2022-10-01T09:02:19.453Z,30.10
2022-10-01T09:05:15.339Z,30.10
2022-10-01T09:07:58.751Z,30.20
2022-10-01T09:10:43.606Z,30.30
2022-10-01T09:13:34.347Z,30.40
2022-10-01T09:16:14.018Z,30.50
2022-10-01T09:18:55.868Z,30.60
2022-10-01T09:21:39.138Z,30.70
2022-10-01T09:24:15.485Z,30.80
2022-10-01T09:26:49.505Z,30.90
2022-10-01T09:29:28.158Z,31.00
2022-10-01T09:31:58.525Z,31.10
2022-10-01T09:34:34.343Z,31.20
2022-10-01T09:37:28.301Z,31.30
2022-10-01T09:40:07.172Z,31.40
2022-10-01T09:42:36.254Z,31.60
2022-10-01T09:45:07.633Z,31.70
2022-10-01T09:47:36.396Z,31.80
2022-10-01T09:50:06.804Z,32.00
2022-10-01T09:52:38.151Z,32.20
2022-10-01T09:55:12.172Z,32.40
2022-10-01T09:58:04.861Z,32.70
2022-10-01T10:00:35.478Z,33.20
2022-10-01T10:03:04.668Z,33.60
2022-10-01T10:05:43.401Z,34.20
2022-10-01T10:08:17.024Z,35.20
2022-10-01T10:10:53.166Z,36.20
2022-10-01T10:13:32.486Z,36.90
2022-10-01T10:16:11.076Z,37.60
2022-10-01T10:18:41.598Z,38.00
2022-10-01T10:21:18.305Z,38.40
2022-10-01T10:23:51.924Z,38.70
2022-10-01T10:26:23.021Z,39.00
2022-10-01T10:28:52.155Z,39.20
2022-10-01T10:31:25.566Z,39.30
2022-10-01T10:33:57.877Z,39.60
2022-10-01T10:36:30.547Z,39.70
2022-10-01T10:39:00.516Z,39.70
2022-10-01T10:41:31.293Z,39.70
2022-10-01T10:44:04.685Z,39.80
2022-10-01T10:46:39.216Z,39.80
2022-10-01T10:49:21.558Z,39.80
2022-10-01T10:51:54.307Z,39.80
2022-10-01T10:54:33.417Z,39.40
2022-10-01T10:57:04.716Z,39.20
2022-10-01T10:59:35.256Z,39.20
2022-10-01T11:02:07.608Z,39.20
2022-10-01T11:04:42.948Z,39.30
2022-10-01T11:07:14.966Z,39.20
2022-10-01T11:10:26.398Z,38.90
2022-10-01T11:13:08.586Z,38.90
2022-10-01T11:15:58.407Z,39.00
2022-10-01T11:18:50.042Z,39.00
2022-10-01T11:21:48.691Z,39.10
2022-10-01T11:24:41.231Z,39.10
2022-10-01T11:27:15.937Z,39.10
2022-10-01T11:29:56.336Z,38.70
2022-10-01T11:32:34.961Z,38.30
2022-10-01T11:35:45.905Z,37.90
2022-10-01T11:38:51.346Z,37.70
2022-10-01T11:41:31.318Z,37.60
2022-10-01T11:44:05.461Z,37.50
2022-10-01T11:46:44.436Z,37.50
2022-10-01T11:49:35.062Z,37.20
2022-10-01T11:52:19.266Z,36.70
2022-10-01T11:55:37.598Z,36.20
2022-10-01T11:58:33.365Z,35.60
2022-10-01T12:01:09.650Z,35.20
2022-10-01T12:03:51.355Z,34.90
2022-10-01T12:06:25.668Z,34.80
2022-10-01T12:09:07.021Z,34.80
2022-10-01T12:11:42.005Z,34.80
2022-10-01T12:14:18.048Z,35.00
2022-10-01T12:16:52.858Z,35.10
2022-10-01T12:19:25.259Z,35.20
2022-10-01T12:22:00.420Z,35.10
2022-10-01T12:24:34.962Z,34.90
2022-10-01T12:27:28.296Z,34.50
2022-10-01T12:30:03.987Z,34.30
2022-10-01T12:32:48.177Z,34.00
2022-10-01T12:35:35.885Z,33.80
2022-10-01T12:38:18.503Z,33.70
2022-10-01T12:40:55.767Z,33.50
2022-10-01T12:43:48.428Z,33.40
2022-10-01T12:46:28.137Z,33.30
2022-10-01T12:49:08.263Z,33.30
2022-10-01T12:51:44.436Z,33.20
2022-10-01T12:54:42.096Z,33.20
2022-10-01T12:57:24.858Z,33.20
2022-10-01T13:00:19.341Z,33.10
2022-10-01T13:03:15.798Z,33.10
2022-10-01T13:05:55.922Z,33.00
2022-10-01T13:08:45.953Z,33.00
2022-10-01T13:11:28.646Z,32.90
2022-10-01T13:14:01.154Z,32.90
2022-10-01T13:16:34.293Z,32.90
2022-10-01T13:19:08.803Z,32.80
2022-10-01T13:21:54.672Z,32.80
2022-10-01T13:24:29.569Z,32.70
2022-10-01T13:27:04.743Z,32.60
2022-10-01T13:29:48.722Z,32.60
2022-10-01T13:32:30.328Z,32.60
2022-10-01T13:35:00.359Z,32.60
2022-10-01T13:37:38.333Z,32.60
2022-10-01T13:40:25.207Z,32.60
2022-10-01T13:42:55.166Z,32.50
2022-10-01T13:45:42.984Z,32.50
2022-10-01T13:48:20.567Z,32.50
2022-10-01T13:50:59.420Z,32.40
2022-10-01T13:53:30.093Z,32.40
2022-10-01T13:55:59.408Z,32.40
2022-10-01T13:58:38.562Z,32.50
2022-10-01T14:01:31.712Z,32.50
2022-10-01T14:04:07.217Z,32.40
2022-10-01T14:06:47.103Z,32.40
2022-10-01T14:09:20.299Z,32.40
2022-10-01T14:12:10.369Z,32.20
2022-10-01T14:14:59.054Z,32.10
2022-10-01T14:17:32.867Z,32.10
2022-10-01T14:20:26.179Z,31.90
2022-10-01T14:23:10.382Z,31.90
2022-10-01T14:25:51.435Z,31.80
2022-10-01T14:28:38.810Z,31.80
2022-10-01T14:31:14.506Z,31.70
2022-10-01T14:33:57.426Z,31.70
2022-10-01T14:36:32.811Z,31.60
2022-10-01T14:39:07.145Z,31.50
2022-10-01T14:41:36.229Z,31.40
2022-10-01T14:44:25.447Z,31.40
2022-10-01T14:46:55.971Z,31.30
2022-10-01T14:49:30.401Z,31.20
2022-10-01T14:52:02.994Z,31.10
2022-10-01T14:54:39.022Z,31.00
2022-10-01T14:57:32.280Z,31.00
2022-10-01T15:00:08.303Z,30.80
2022-10-01T15:02:45.580Z,30.80
2022-10-01T15:05:23.505Z,30.70
2022-10-01T15:07:52.881Z,30.60
2022-10-01T15:10:24.202Z,30.50
2022-10-01T15:12:55.350Z,30.40
2022-10-01T15:15:29.672Z,30.30
2022-10-01T15:17:58.630Z,30.20
2022-10-01T15:20:29.179Z,30.10
2022-10-01T15:23:01.430Z,30.00
2022-10-01T15:25:32.811Z,30.00
2022-10-01T15:28:32.169Z,29.90
2022-10-01T15:31:03.454Z,29.70
2022-10-01T15:33:34.538Z,29.60
2022-10-01T15:36:06.910Z,29.40
2022-10-01T15:38:36.497Z,29.30
2022-10-01T15:41:30.671Z,29.10
2022-10-01T15:44:47.326Z,29.00
2022-10-01T15:47:33.182Z,28.80
2022-10-01T15:50:19.332Z,28.60
2022-10-01T15:52:54.611Z,28.40
2022-10-01T15:55:32.596Z,28.30
2022-10-01T15:58:08.436Z,28.10
2022-10-01T16:00:44.978Z,28.00
2022-10-01T16:03:23.527Z,27.80
2022-10-01T16:05:55.242Z,27.70
2022-10-01T16:08:34.424Z,27.60
2022-10-01T16:11:28.063Z,27.40
2022-10-01T16:14:22.477Z,27.30
2022-10-01T16:16:52.006Z,27.10
2022-10-01T16:19:29.650Z,26.90
2022-10-01T16:22:22.983Z,26.80
2022-10-01T16:24:54.979Z,26.60
2022-10-01T16:27:26.400Z,26.50
2022-10-01T16:30:01.322Z,26.40
2022-10-01T16:32:33.689Z,26.30
2022-10-01T16:35:21.935Z,26.20
2022-10-01T16:37:53.784Z,26.10
2022-10-01T16:40:26.221Z,26.00
2022-10-01T16:42:55.512Z,25.90
2022-10-01T16:45:27.034Z,25.90
2022-10-01T16:47:57.873Z,25.80
2022-10-01T16:50:27.903Z,25.80
2022-10-01T16:53:01.522Z,25.70
2022-10-01T16:55:37.199Z,25.60
2022-10-01T16:58:07.192Z,25.60
2022-10-01T17:00:37.341Z,25.40
2022-10-01T17:03:09.240Z,25.30
2022-10-01T17:05:56.940Z,25.30
2022-10-01T17:08:25.993Z,25.20
2022-10-01T17:10:59.398Z,25.10
2022-10-01T17:13:29.212Z,25.00
2022-10-01T17:15:58.969Z,25.00
2022-10-01T17:18:27.784Z,24.90
2022-10-01T17:20:57.512Z,24.90
2022-10-01T17:23:26.622Z,24.90
2022-10-01T17:25:57.021Z,24.70
2022-10-01T17:28:25.907Z,24.70
2022-10-01T17:30:54.625Z,24.50
2022-10-01T17:33:25.223Z,24.40
2022-10-01T17:35:55.881Z,24.20
2022-10-01T17:38:26.029Z,24.20
2022-10-01T17:40:56.923Z,24.00
2022-10-01T17:43:44.458Z,23.90
2022-10-01T17:46:13.408Z,23.90
2022-10-01T17:48:42.881Z,23.80
2022-10-01T17:51:16.177Z,23.70
2022-10-01T17:53:45.168Z,23.70
2022-10-01T17:56:17.952Z,23.60
2022-10-01T17:58:47.708Z,23.60
2022-10-01T18:01:20.066Z,23.50
2022-10-01T18:03:49.329Z,23.50
2022-10-01T18:06:18.078Z,23.50
2022-10-01T18:08:56.038Z,23.50
2022-10-01T18:11:27.922Z,23.40
2022-10-01T18:13:57.028Z,23.40
2022-10-01T18:16:26.611Z,23.40
2022-10-01T18:21:49.236Z,23.30
2022-10-01T18:24:18.608Z,23.30
2022-10-01T18:26:49.104Z,23.30
2022-10-01T18:29:21.782Z,23.30
2022-10-01T18:31:56.127Z,23.40
2022-10-01T18:34:31.898Z,23.40
2022-10-01T18:37:06.285Z,23.40
2022-10-01T18:39:41.213Z,23.40
2022-10-01T18:42:18.292Z,23.40
2022-10-01T18:44:52.272Z,23.50
2022-10-01T18:47:34.427Z,23.50
2022-10-01T18:50:30.001Z,23.50
2022-10-01T18:53:12.219Z,23.50
2022-10-01T18:56:10.229Z,23.50
2022-10-01T18:58:58.429Z,23.50
2022-10-01T19:01:57.413Z,23.50
2022-10-01T19:05:05.558Z,23.40
2022-10-01T19:07:48.557Z,23.40
2022-10-01T19:10:27.046Z,23.40
2022-10-01T19:13:05.787Z,23.40
2022-10-01T19:15:49.609Z,23.30
2022-10-01T19:18:47.419Z,23.30
2022-10-01T19:21:26.598Z,23.30
2022-10-01T19:24:24.639Z,23.20
2022-10-01T19:27:05.206Z,23.20
2022-10-01T19:29:57.804Z,23.10
2022-10-01T19:32:37.305Z,23.00
2022-10-01T19:35:13.571Z,23.00
2022-10-01T19:37:48.308Z,22.90
2022-10-01T19:40:27.713Z,22.90
2022-10-01T19:43:04.223Z,22.80
2022-10-01T19:45:44.789Z,22.70
2022-10-01T19:48:21.383Z,22.60
2022-10-01T19:50:56.299Z,22.60
2022-10-01T19:53:29.873Z,22.50
2022-10-01T19:56:01.814Z,22.50
2022-10-01T19:58:32.512Z,22.40
2022-10-01T20:01:04.132Z,22.30
2022-10-01T20:03:39.937Z,22.30
2022-10-01T20:06:19.800Z,22.30
2022-10-01T20:08:53.781Z,22.20
2022-10-01T20:11:30.780Z,22.20
2022-10-01T20:14:44.353Z,22.20
2022-10-01T20:17:20.877Z,22.10
2022-10-01T20:19:58.108Z,22.10
2022-10-01T20:22:35.172Z,22.10
2022-10-01T20:25:11.902Z,22.00
2022-10-01T20:27:49.631Z,22.00
2022-10-01T20:30:20.440Z,22.10
2022-10-01T20:33:13.464Z,22.10
2022-10-01T20:35:51.633Z,22.10
2022-10-01T20:38:24.140Z,22.10
2022-10-01T20:40:56.840Z,22.10
2022-10-01T20:43:32.538Z,22.00
2022-10-01T20:46:10.304Z,22.00
2022-10-01T20:48:43.978Z,22.00
2022-10-01T20:51:19.321Z,22.00
2022-10-01T20:53:54.569Z,22.00
2022-10-01T20:56:26.745Z,22.00
2022-10-01T20:59:00.747Z,21.90
2022-10-01T21:01:32.350Z,21.90
2022-10-01T21:04:06.295Z,21.90
2022-10-01T21:06:40.953Z,21.80
2022-10-01T21:09:16.684Z,21.80
2022-10-01T21:11:51.007Z,21.70
2022-10-01T21:14:25.245Z,21.70
2022-10-01T21:17:20.928Z,21.70
2022-10-01T21:20:18.406Z,21.70
2022-10-01T21:23:04.213Z,21.60
2022-10-01T21:25:41.121Z,21.60
2022-10-01T21:28:20.476Z,21.60
2022-10-01T21:31:03.782Z,21.60
2022-10-01T21:33:54.215Z,21.60
2022-10-01T21:36:29.187Z,21.60
2022-10-01T21:39:07.015Z,21.60
2022-10-01T21:42:01.874Z,21.60
2022-10-01T21:45:02.878Z,21.60
2022-10-01T21:47:44.089Z,21.60
2022-10-01T21:50:23.965Z,21.60
2022-10-01T21:53:10.965Z,21.60
2022-10-01T21:55:59.336Z,21.70
2022-10-01T21:58:39.360Z,21.70
2022-10-01T22:01:17.387Z,21.70
2022-10-01T22:03:51.004Z,21.70
2022-10-01T22:06:29.235Z,21.70
2022-10-01T22:09:24.146Z,21.80
2022-10-01T22:11:58.683Z,21.90
2022-10-01T22:14:28.818Z,21.90
2022-10-01T22:16:59.134Z,22.00
2022-10-01T22:19:31.267Z,22.00
2022-10-01T22:22:06.120Z,22.00
2022-10-01T22:24:40.331Z,22.10
2022-10-01T22:27:14.783Z,22.10
2022-10-01T22:29:49.356Z,22.20
2022-10-01T22:32:21.063Z,22.20
2022-10-01T22:34:56.509Z,22.20
2022-10-01T22:37:32.149Z,22.20
2022-10-01T22:40:07.925Z,22.20
2022-10-01T22:42:42.848Z,22.20
2022-10-01T22:45:15.967Z,22.20
2022-10-01T22:47:59.576Z,22.10
2022-10-01T22:50:57.299Z,22.10
2022-10-01T22:53:43.438Z,22.10
2022-10-01T22:56:19.426Z,22.00
2022-10-01T22:59:01.972Z,22.10
2022-10-01T23:01:38.487Z,22.00
2022-10-01T23:04:21.885Z,22.00
2022-10-01T23:07:02.012Z,22.00
2022-10-01T23:09:36.808Z,22.00
2022-10-01T23:12:12.691Z,22.00
2022-10-01T23:14:55.560Z,22.00
2022-10-01T23:17:30.159Z,21.90
2022-10-01T23:20:12.618Z,21.90
2022-10-01T23:22:54.320Z,21.90
2022-10-01T23:25:40.288Z,21.90
2022-10-01T23:28:22.519Z,21.90
2022-10-01T23:31:08.185Z,21.90
2022-10-01T23:33:49.503Z,21.90
2022-10-01T23:36:40.016Z,21.90
2022-10-01T23:39:32.064Z,22.00
2022-10-01T23:42:11.036Z,22.10
2022-10-01T23:44:48.629Z,22.10
2022-10-01T23:47:25.459Z,22.10
2022-10-01T23:50:00.407Z,22.10
2022-10-01T23:52:41.728Z,22.20
2022-10-01T23:55:38.821Z,22.20
2022-10-01T23:58:12.121Z,22.20
